sensor_id;sensor_type;location;lat;lon;timestamp;P1;durP1;ratioP1;P2;durP2;ratioP2
79585;SDS011;69054;50.866;4.636;2023-04-25T00:00:02;10.70;;;4.82;;
79585;SDS011;69054;50.866;4.636;2023-04-25T00:02:31;15.30;;;5.57;;
79585;SDS011;69054;50.866;4.636;2023-04-25T00:04:59;18.90;;;6.65;;
79585;SDS011;69054;50.866;4.636;2023-04-25T00:07:26;12.73;;;5.50;;
79585;SDS011;69054;50.866;4.636;2023-04-25T00:09:52;14.90;;;5.40;;
79585;SDS011;69054;50.866;4.636;2023-04-25T00:12:17;16.10;;;6.75;;
79585;SDS011;69054;50.866;4.636;2023-04-25T00:14:43;10.75;;;5.28;;
79585;SDS011;69054;50.866;4.636;2023-04-25T00:17:10;14.15;;;5.60;;
79585;SDS011;69054;50.866;4.636;2023-04-25T00:19:36;18.95;;;6.93;;
79585;SDS011;69054;50.866;4.636;2023-04-25T00:22:02;13.02;;;5.40;;
79585;SDS011;69054;50.866;4.636;2023-04-25T00:24:28;12.32;;;4.72;;
79585;SDS011;69054;50.866;4.636;2023-04-25T00:26:54;16.17;;;6.07;;
79585;SDS011;69054;50.866;4.636;2023-04-25T00:29:19;14.63;;;5.60;;
79585;SDS011;69054;50.866;4.636;2023-04-25T00:31:45;12.63;;;5.85;;
79585;SDS011;69054;50.866;4.636;2023-04-25T00:34:10;15.13;;;5.75;;
79585;SDS011;69054;50.866;4.636;2023-04-25T00:36:35;11.38;;;5.50;;
79585;SDS011;69054;50.866;4.636;2023-04-25T00:39:01;13.90;;;5.25;;
79585;SDS011;69054;50.866;4.636;2023-04-25T00:41:28;9.35;;;5.35;;
79585;SDS011;69054;50.866;4.636;2023-04-25T00:43:55;9.60;;;6.07;;
79585;SDS011;69054;50.866;4.636;2023-04-25T00:46:21;13.82;;;5.82;;
79585;SDS011;69054;50.866;4.636;2023-04-25T00:48:47;11.20;;;5.35;;
79585;SDS011;69054;50.866;4.636;2023-04-25T00:51:13;14.43;;;5.22;;
79585;SDS011;69054;50.866;4.636;2023-04-25T00:53:41;13.23;;;5.63;;
79585;SDS011;69054;50.866;4.636;2023-04-25T00:56:07;9.50;;;5.05;;
79585;SDS011;69054;50.866;4.636;2023-04-25T00:58:32;12.77;;;4.60;;
79585;SDS011;69054;50.866;4.636;2023-04-25T01:00:58;12.32;;;5.32;;
79585;SDS011;69054;50.866;4.636;2023-04-25T01:03:25;12.00;;;5.63;;
79585;SDS011;69054;50.866;4.636;2023-04-25T01:05:53;12.32;;;5.55;;
79585;SDS011;69054;50.866;4.636;2023-04-25T01:08:19;12.68;;;5.22;;
79585;SDS011;69054;50.866;4.636;2023-04-25T01:10:48;12.13;;;5.63;;
79585;SDS011;69054;50.866;4.636;2023-04-25T01:13:13;12.88;;;5.57;;
79585;SDS011;69054;50.866;4.636;2023-04-25T01:15:39;15.13;;;5.47;;
79585;SDS011;69054;50.866;4.636;2023-04-25T01:18:05;11.88;;;5.38;;
79585;SDS011;69054;50.866;4.636;2023-04-25T01:20:33;18.35;;;6.03;;
79585;SDS011;69054;50.866;4.636;2023-04-25T01:22:58;15.10;;;6.07;;
79585;SDS011;69054;50.866;4.636;2023-04-25T01:25:25;15.57;;;5.55;;
79585;SDS011;69054;50.866;4.636;2023-04-25T01:27:51;16.23;;;5.25;;
79585;SDS011;69054;50.866;4.636;2023-04-25T01:30:16;17.38;;;5.28;;
79585;SDS011;69054;50.866;4.636;2023-04-25T01:32:42;14.45;;;5.22;;
79585;SDS011;69054;50.866;4.636;2023-04-25T01:35:09;13.27;;;5.05;;
79585;SDS011;69054;50.866;4.636;2023-04-25T01:37:39;11.55;;;4.78;;
79585;SDS011;69054;50.866;4.636;2023-04-25T01:40:06;14.93;;;5.00;;
79585;SDS011;69054;50.866;4.636;2023-04-25T01:42:34;14.68;;;5.22;;
79585;SDS011;69054;50.866;4.636;2023-04-25T01:45:01;9.57;;;4.78;;
79585;SDS011;69054;50.866;4.636;2023-04-25T01:47:27;11.70;;;5.35;;
79585;SDS011;69054;50.866;4.636;2023-04-25T01:49:52;11.13;;;5.63;;
79585;SDS011;69054;50.866;4.636;2023-04-25T01:52:18;12.75;;;5.50;;
79585;SDS011;69054;50.866;4.636;2023-04-25T01:54:43;18.15;;;5.25;;
79585;SDS011;69054;50.866;4.636;2023-04-25T01:57:10;11.38;;;5.05;;
79585;SDS011;69054;50.866;4.636;2023-04-25T01:59:36;13.65;;;5.60;;
79585;SDS011;69054;50.866;4.636;2023-04-25T02:02:02;14.25;;;5.22;;
79585;SDS011;69054;50.866;4.636;2023-04-25T02:04:29;12.43;;;5.75;;
79585;SDS011;69054;50.866;4.636;2023-04-25T02:06:57;16.20;;;6.13;;
79585;SDS011;69054;50.866;4.636;2023-04-25T02:09:23;15.65;;;5.80;;
79585;SDS011;69054;50.866;4.636;2023-04-25T02:11:48;13.07;;;6.00;;
79585;SDS011;69054;50.866;4.636;2023-04-25T02:14:14;12.90;;;6.22;;
79585;SDS011;69054;50.866;4.636;2023-04-25T02:16:39;13.10;;;6.10;;
79585;SDS011;69054;50.866;4.636;2023-04-25T02:19:05;16.08;;;5.30;;
79585;SDS011;69054;50.866;4.636;2023-04-25T02:21:31;14.35;;;5.55;;
79585;SDS011;69054;50.866;4.636;2023-04-25T02:23:57;13.20;;;5.97;;
79585;SDS011;69054;50.866;4.636;2023-04-25T02:26:22;14.73;;;6.22;;
79585;SDS011;69054;50.866;4.636;2023-04-25T02:28:49;15.80;;;6.03;;
79585;SDS011;69054;50.866;4.636;2023-04-25T02:31:15;14.25;;;6.70;;
79585;SDS011;69054;50.866;4.636;2023-04-25T02:33:41;17.38;;;5.65;;
79585;SDS011;69054;50.866;4.636;2023-04-25T02:36:06;14.25;;;6.22;;
79585;SDS011;69054;50.866;4.636;2023-04-25T02:38:32;13.23;;;6.63;;
79585;SDS011;69054;50.866;4.636;2023-04-25T02:40:57;16.30;;;6.10;;
79585;SDS011;69054;50.866;4.636;2023-04-25T02:43:24;13.77;;;6.28;;
79585;SDS011;69054;50.866;4.636;2023-04-25T02:45:49;11.98;;;5.63;;
79585;SDS011;69054;50.866;4.636;2023-04-25T02:48:15;17.83;;;6.88;;
79585;SDS011;69054;50.866;4.636;2023-04-25T02:50:40;20.05;;;6.28;;
79585;SDS011;69054;50.866;4.636;2023-04-25T02:53:05;16.50;;;6.50;;
79585;SDS011;69054;50.866;4.636;2023-04-25T02:55:31;11.15;;;6.78;;
79585;SDS011;69054;50.866;4.636;2023-04-25T02:57:56;16.75;;;6.68;;
79585;SDS011;69054;50.866;4.636;2023-04-25T03:00:22;14.82;;;6.28;;
79585;SDS011;69054;50.866;4.636;2023-04-25T03:02:47;14.98;;;6.63;;
79585;SDS011;69054;50.866;4.636;2023-04-25T03:05:13;22.02;;;6.57;;
79585;SDS011;69054;50.866;4.636;2023-04-25T03:07:38;14.75;;;6.85;;
79585;SDS011;69054;50.866;4.636;2023-04-25T03:10:05;13.02;;;5.60;;
79585;SDS011;69054;50.866;4.636;2023-04-25T03:12:33;19.70;;;7.25;;
79585;SDS011;69054;50.866;4.636;2023-04-25T03:14:59;15.05;;;6.43;;
79585;SDS011;69054;50.866;4.636;2023-04-25T03:17:24;14.18;;;8.45;;
79585;SDS011;69054;50.866;4.636;2023-04-25T03:19:50;16.98;;;6.40;;
79585;SDS011;69054;50.866;4.636;2023-04-25T03:22:15;15.57;;;5.80;;
79585;SDS011;69054;50.866;4.636;2023-04-25T03:24:42;19.10;;;6.22;;
79585;SDS011;69054;50.866;4.636;2023-04-25T03:27:08;11.40;;;5.72;;
79585;SDS011;69054;50.866;4.636;2023-04-25T03:29:33;17.50;;;6.43;;
79585;SDS011;69054;50.866;4.636;2023-04-25T03:31:58;14.00;;;6.13;;
79585;SDS011;69054;50.866;4.636;2023-04-25T03:34:24;16.98;;;5.75;;
79585;SDS011;69054;50.866;4.636;2023-04-25T03:36:50;18.70;;;5.68;;
79585;SDS011;69054;50.866;4.636;2023-04-25T03:39:16;17.45;;;5.97;;
79585;SDS011;69054;50.866;4.636;2023-04-25T03:41:41;17.83;;;6.00;;
79585;SDS011;69054;50.866;4.636;2023-04-25T03:44:07;16.00;;;5.65;;
79585;SDS011;69054;50.866;4.636;2023-04-25T03:46:32;12.30;;;5.07;;
79585;SDS011;69054;50.866;4.636;2023-04-25T03:48:58;13.35;;;5.15;;
79585;SDS011;69054;50.866;4.636;2023-04-25T03:51:24;12.02;;;4.55;;
79585;SDS011;69054;50.866;4.636;2023-04-25T03:53:50;14.30;;;4.85;;
79585;SDS011;69054;50.866;4.636;2023-04-25T03:56:16;12.23;;;4.97;;
79585;SDS011;69054;50.866;4.636;2023-04-25T03:58:41;14.30;;;5.45;;
79585;SDS011;69054;50.866;4.636;2023-04-25T04:01:07;15.00;;;5.15;;
79585;SDS011;69054;50.866;4.636;2023-04-25T04:03:35;18.77;;;5.60;;
79585;SDS011;69054;50.866;4.636;2023-04-25T04:06:04;19.45;;;5.78;;
79585;SDS011;69054;50.866;4.636;2023-04-25T04:08:31;10.50;;;5.03;;
79585;SDS011;69054;50.866;4.636;2023-04-25T04:10:57;12.30;;;5.13;;
79585;SDS011;69054;50.866;4.636;2023-04-25T04:13:25;13.35;;;4.78;;
79585;SDS011;69054;50.866;4.636;2023-04-25T04:15:51;10.80;;;4.88;;
79585;SDS011;69054;50.866;4.636;2023-04-25T04:18:17;13.05;;;5.50;;
79585;SDS011;69054;50.866;4.636;2023-04-25T04:20:42;14.43;;;5.63;;
79585;SDS011;69054;50.866;4.636;2023-04-25T04:23:07;16.83;;;5.95;;
79585;SDS011;69054;50.866;4.636;2023-04-25T04:25:33;11.05;;;4.75;;
79585;SDS011;69054;50.866;4.636;2023-04-25T04:27:59;9.75;;;3.80;;
79585;SDS011;69054;50.866;4.636;2023-04-25T04:30:26;11.25;;;5.57;;
79585;SDS011;69054;50.866;4.636;2023-04-25T04:32:54;8.95;;;4.43;;
79585;SDS011;69054;50.866;4.636;2023-04-25T04:35:20;10.30;;;4.85;;
79585;SDS011;69054;50.866;4.636;2023-04-25T04:37:46;10.07;;;4.85;;
79585;SDS011;69054;50.866;4.636;2023-04-25T04:40:12;10.27;;;5.15;;
79585;SDS011;69054;50.866;4.636;2023-04-25T04:42:40;10.50;;;5.03;;
79585;SDS011;69054;50.866;4.636;2023-04-25T04:45:10;14.90;;;4.93;;
79585;SDS011;69054;50.866;4.636;2023-04-25T04:47:37;13.10;;;5.03;;
79585;SDS011;69054;50.866;4.636;2023-04-25T04:50:04;12.13;;;4.65;;
79585;SDS011;69054;50.866;4.636;2023-04-25T04:52:33;11.00;;;5.07;;
79585;SDS011;69054;50.866;4.636;2023-04-25T04:54:59;11.30;;;5.13;;
79585;SDS011;69054;50.866;4.636;2023-04-25T04:57:25;11.98;;;4.53;;
79585;SDS011;69054;50.866;4.636;2023-04-25T04:59:51;8.05;;;4.70;;
79585;SDS011;69054;50.866;4.636;2023-04-25T05:02:17;10.25;;;4.68;;
79585;SDS011;69054;50.866;4.636;2023-04-25T05:04:42;12.95;;;5.50;;
79585;SDS011;69054;50.866;4.636;2023-04-25T05:07:08;12.13;;;5.13;;
79585;SDS011;69054;50.866;4.636;2023-04-25T05:09:33;10.48;;;4.97;;
79585;SDS011;69054;50.866;4.636;2023-04-25T05:11:59;13.98;;;6.43;;
79585;SDS011;69054;50.866;4.636;2023-04-25T05:14:25;11.27;;;5.20;;
79585;SDS011;69054;50.866;4.636;2023-04-25T05:16:51;14.55;;;6.05;;
79585;SDS011;69054;50.866;4.636;2023-04-25T05:19:16;9.90;;;5.18;;
79585;SDS011;69054;50.866;4.636;2023-04-25T05:21:42;12.30;;;4.57;;
79585;SDS011;69054;50.866;4.636;2023-04-25T05:24:08;12.73;;;5.30;;
79585;SDS011;69054;50.866;4.636;2023-04-25T05:26:33;8.00;;;4.70;;
79585;SDS011;69054;50.866;4.636;2023-04-25T05:28:59;13.85;;;4.85;;
79585;SDS011;69054;50.866;4.636;2023-04-25T05:31:24;11.75;;;5.10;;
79585;SDS011;69054;50.866;4.636;2023-04-25T05:33:50;12.70;;;4.63;;
79585;SDS011;69054;50.866;4.636;2023-04-25T05:36:15;10.88;;;5.47;;
79585;SDS011;69054;50.866;4.636;2023-04-25T05:38:41;10.75;;;4.55;;
79585;SDS011;69054;50.866;4.636;2023-04-25T05:41:07;14.80;;;5.97;;
79585;SDS011;69054;50.866;4.636;2023-04-25T05:43:32;11.63;;;5.75;;
79585;SDS011;69054;50.866;4.636;2023-04-25T05:45:58;10.13;;;5.93;;
79585;SDS011;69054;50.866;4.636;2023-04-25T05:48:23;14.38;;;6.25;;
79585;SDS011;69054;50.866;4.636;2023-04-25T05:50:49;9.48;;;4.90;;
79585;SDS011;69054;50.866;4.636;2023-04-25T05:53:16;13.43;;;5.40;;
79585;SDS011;69054;50.866;4.636;2023-04-25T05:55:42;13.32;;;5.78;;
79585;SDS011;69054;50.866;4.636;2023-04-25T05:58:07;16.45;;;5.75;;
79585;SDS011;69054;50.866;4.636;2023-04-25T06:00:32;17.67;;;7.03;;
79585;SDS011;69054;50.866;4.636;2023-04-25T06:02:58;20.38;;;9.90;;
79585;SDS011;69054;50.866;4.636;2023-04-25T06:05:24;12.50;;;6.30;;
79585;SDS011;69054;50.866;4.636;2023-04-25T06:07:50;15.18;;;6.50;;
79585;SDS011;69054;50.866;4.636;2023-04-25T06:10:15;16.13;;;8.13;;
79585;SDS011;69054;50.866;4.636;2023-04-25T06:12:40;12.25;;;5.40;;
79585;SDS011;69054;50.866;4.636;2023-04-25T06:15:06;13.32;;;6.13;;
79585;SDS011;69054;50.866;4.636;2023-04-25T06:17:32;13.57;;;5.28;;
79585;SDS011;69054;50.866;4.636;2023-04-25T06:19:58;9.55;;;5.30;;
79585;SDS011;69054;50.866;4.636;2023-04-25T06:22:23;11.07;;;5.78;;
79585;SDS011;69054;50.866;4.636;2023-04-25T06:24:49;15.30;;;5.32;;
79585;SDS011;69054;50.866;4.636;2023-04-25T06:27:14;13.13;;;6.15;;
79585;SDS011;69054;50.866;4.636;2023-04-25T06:29:40;11.45;;;5.55;;
79585;SDS011;69054;50.866;4.636;2023-04-25T06:32:05;11.88;;;5.32;;
79585;SDS011;69054;50.866;4.636;2023-04-25T06:34:31;10.70;;;5.53;;
79585;SDS011;69054;50.866;4.636;2023-04-25T06:36:56;9.23;;;4.82;;
79585;SDS011;69054;50.866;4.636;2023-04-25T06:39:21;10.82;;;5.28;;
79585;SDS011;69054;50.866;4.636;2023-04-25T06:41:48;11.05;;;4.90;;
79585;SDS011;69054;50.866;4.636;2023-04-25T06:44:14;13.00;;;5.00;;
79585;SDS011;69054;50.866;4.636;2023-04-25T06:46:40;11.45;;;5.10;;
79585;SDS011;69054;50.866;4.636;2023-04-25T06:49:05;12.38;;;5.63;;
79585;SDS011;69054;50.866;4.636;2023-04-25T06:51:31;11.82;;;5.45;;
79585;SDS011;69054;50.866;4.636;2023-04-25T06:53:56;14.35;;;6.10;;
79585;SDS011;69054;50.866;4.636;2023-04-25T06:56:22;10.93;;;5.32;;
79585;SDS011;69054;50.866;4.636;2023-04-25T06:58:48;17.50;;;6.15;;
79585;SDS011;69054;50.866;4.636;2023-04-25T07:01:13;8.50;;;4.63;;
79585;SDS011;69054;50.866;4.636;2023-04-25T07:03:39;11.90;;;5.05;;
79585;SDS011;69054;50.866;4.636;2023-04-25T07:06:04;15.55;;;5.20;;
79585;SDS011;69054;50.866;4.636;2023-04-25T07:08:30;9.57;;;5.85;;
79585;SDS011;69054;50.866;4.636;2023-04-25T07:10:55;10.70;;;4.95;;
79585;SDS011;69054;50.866;4.636;2023-04-25T07:13:21;12.48;;;5.28;;
79585;SDS011;69054;50.866;4.636;2023-04-25T07:15:49;10.25;;;4.70;;
79585;SDS011;69054;50.866;4.636;2023-04-25T07:18:15;10.05;;;5.07;;
79585;SDS011;69054;50.866;4.636;2023-04-25T07:20:41;14.82;;;5.10;;
79585;SDS011;69054;50.866;4.636;2023-04-25T07:23:06;12.38;;;5.13;;
79585;SDS011;69054;50.866;4.636;2023-04-25T07:25:31;13.52;;;5.38;;
79585;SDS011;69054;50.866;4.636;2023-04-25T07:27:57;11.70;;;4.88;;
79585;SDS011;69054;50.866;4.636;2023-04-25T07:30:22;10.05;;;4.82;;
79585;SDS011;69054;50.866;4.636;2023-04-25T07:32:48;12.07;;;4.97;;
79585;SDS011;69054;50.866;4.636;2023-04-25T07:35:15;10.85;;;5.10;;
79585;SDS011;69054;50.866;4.636;2023-04-25T07:37:41;13.30;;;5.88;;
79585;SDS011;69054;50.866;4.636;2023-04-25T07:40:07;13.52;;;5.65;;
79585;SDS011;69054;50.866;4.636;2023-04-25T07:42:34;14.13;;;5.82;;
79585;SDS011;69054;50.866;4.636;2023-04-25T07:45:00;14.50;;;5.95;;
79585;SDS011;69054;50.866;4.636;2023-04-25T07:47:25;11.30;;;5.22;;
79585;SDS011;69054;50.866;4.636;2023-04-25T07:49:51;10.65;;;5.95;;
79585;SDS011;69054;50.866;4.636;2023-04-25T07:52:16;13.02;;;5.55;;
79585;SDS011;69054;50.866;4.636;2023-04-25T07:54:42;15.95;;;6.95;;
79585;SDS011;69054;50.866;4.636;2023-04-25T07:57:07;12.85;;;5.63;;
79585;SDS011;69054;50.866;4.636;2023-04-25T07:59:33;9.77;;;6.03;;
79585;SDS011;69054;50.866;4.636;2023-04-25T08:01:59;13.98;;;5.47;;
79585;SDS011;69054;50.866;4.636;2023-04-25T08:04:25;13.07;;;5.40;;
79585;SDS011;69054;50.866;4.636;2023-04-25T08:06:53;13.43;;;5.00;;
79585;SDS011;69054;50.866;4.636;2023-04-25T08:09:19;11.85;;;4.80;;
79585;SDS011;69054;50.866;4.636;2023-04-25T08:11:45;13.85;;;5.40;;
79585;SDS011;69054;50.866;4.636;2023-04-25T08:14:11;11.70;;;4.60;;
79585;SDS011;69054;50.866;4.636;2023-04-25T08:16:37;16.05;;;5.20;;
79585;SDS011;69054;50.866;4.636;2023-04-25T08:19:04;8.70;;;3.80;;
79585;SDS011;69054;50.866;4.636;2023-04-25T08:21:30;9.75;;;4.63;;
79585;SDS011;69054;50.866;4.636;2023-04-25T08:23:56;13.98;;;5.60;;
79585;SDS011;69054;50.866;4.636;2023-04-25T08:26:23;12.63;;;5.25;;
79585;SDS011;69054;50.866;4.636;2023-04-25T08:28:48;10.52;;;5.05;;
79585;SDS011;69054;50.866;4.636;2023-04-25T08:31:14;12.80;;;4.97;;
79585;SDS011;69054;50.866;4.636;2023-04-25T08:33:39;9.90;;;5.45;;
79585;SDS011;69054;50.866;4.636;2023-04-25T08:36:05;11.65;;;5.13;;
79585;SDS011;69054;50.866;4.636;2023-04-25T08:38:31;9.38;;;4.28;;
79585;SDS011;69054;50.866;4.636;2023-04-25T08:40:56;9.35;;;4.72;;
79585;SDS011;69054;50.866;4.636;2023-04-25T08:43:22;10.05;;;4.22;;
79585;SDS011;69054;50.866;4.636;2023-04-25T08:45:48;9.40;;;4.18;;
79585;SDS011;69054;50.866;4.636;2023-04-25T08:48:14;8.35;;;3.72;;
79585;SDS011;69054;50.866;4.636;2023-04-25T08:50:44;13.93;;;4.47;;
79585;SDS011;69054;50.866;4.636;2023-04-25T08:53:10;11.07;;;3.78;;
79585;SDS011;69054;50.866;4.636;2023-04-25T08:55:41;7.95;;;3.60;;
79585;SDS011;69054;50.866;4.636;2023-04-25T08:58:07;9.35;;;3.80;;
79585;SDS011;69054;50.866;4.636;2023-04-25T09:00:35;7.40;;;3.92;;
79585;SDS011;69054;50.866;4.636;2023-04-25T09:03:01;10.35;;;3.85;;
79585;SDS011;69054;50.866;4.636;2023-04-25T09:05:28;7.13;;;3.60;;
79585;SDS011;69054;50.866;4.636;2023-04-25T09:07:53;9.05;;;3.70;;
79585;SDS011;69054;50.866;4.636;2023-04-25T09:10:19;9.38;;;4.22;;
79585;SDS011;69054;50.866;4.636;2023-04-25T09:12:44;7.38;;;3.85;;
79585;SDS011;69054;50.866;4.636;2023-04-25T09:15:10;6.20;;;3.40;;
79585;SDS011;69054;50.866;4.636;2023-04-25T09:17:37;9.10;;;3.40;;
79585;SDS011;69054;50.866;4.636;2023-04-25T09:20:15;7.53;;;3.17;;
79585;SDS011;69054;50.866;4.636;2023-04-25T09:22:40;7.30;;;3.40;;
79585;SDS011;69054;50.866;4.636;2023-04-25T09:25:08;6.60;;;2.90;;
79585;SDS011;69054;50.866;4.636;2023-04-25T09:27:34;5.57;;;2.80;;
79585;SDS011;69054;50.866;4.636;2023-04-25T09:30:00;5.43;;;3.28;;
79585;SDS011;69054;50.866;4.636;2023-04-25T09:32:26;4.53;;;2.88;;
79585;SDS011;69054;50.866;4.636;2023-04-25T09:34:55;6.50;;;3.22;;
79585;SDS011;69054;50.866;4.636;2023-04-25T09:39:50;8.30;;;3.45;;
79585;SDS011;69054;50.866;4.636;2023-04-25T09:42:18;7.63;;;3.60;;
79585;SDS011;69054;50.866;4.636;2023-04-25T09:44:46;5.88;;;3.50;;
79585;SDS011;69054;50.866;4.636;2023-04-25T09:47:15;7.30;;;3.30;;
79585;SDS011;69054;50.866;4.636;2023-04-25T09:52:08;6.72;;;3.72;;
79585;SDS011;69054;50.866;4.636;2023-04-25T09:54:34;7.28;;;3.60;;
79585;SDS011;69054;50.866;4.636;2023-04-25T09:57:10;10.98;;;4.03;;
79585;SDS011;69054;50.866;4.636;2023-04-25T09:59:38;7.25;;;3.33;;
79585;SDS011;69054;50.866;4.636;2023-04-25T10:02:05;8.45;;;3.92;;
79585;SDS011;69054;50.866;4.636;2023-04-25T10:04:33;6.45;;;3.40;;
79585;SDS011;69054;50.866;4.636;2023-04-25T10:06:59;7.80;;;2.90;;
79585;SDS011;69054;50.866;4.636;2023-04-25T10:09:28;6.03;;;2.60;;
79585;SDS011;69054;50.866;4.636;2023-04-25T10:11:58;4.95;;;2.53;;
79585;SDS011;69054;50.866;4.636;2023-04-25T10:14:25;4.88;;;2.65;;
79585;SDS011;69054;50.866;4.636;2023-04-25T10:16:51;5.97;;;2.63;;
79585;SDS011;69054;50.866;4.636;2023-04-25T10:19:20;3.67;;;2.55;;
79585;SDS011;69054;50.866;4.636;2023-04-25T10:21:48;4.38;;;2.33;;
79585;SDS011;69054;50.866;4.636;2023-04-25T10:24:17;7.10;;;2.83;;
79585;SDS011;69054;50.866;4.636;2023-04-25T10:26:44;5.53;;;2.67;;
79585;SDS011;69054;50.866;4.636;2023-04-25T10:29:10;6.05;;;2.58;;
79585;SDS011;69054;50.866;4.636;2023-04-25T10:31:44;6.13;;;2.60;;
79585;SDS011;69054;50.866;4.636;2023-04-25T10:34:10;6.25;;;2.50;;
79585;SDS011;69054;50.866;4.636;2023-04-25T10:36:35;4.60;;;2.65;;
79585;SDS011;69054;50.866;4.636;2023-04-25T10:39:03;4.72;;;2.40;;
79585;SDS011;69054;50.866;4.636;2023-04-25T10:44:33;7.25;;;2.70;;
79585;SDS011;69054;50.866;4.636;2023-04-25T10:47:00;5.63;;;3.15;;
79585;SDS011;69054;50.866;4.636;2023-04-25T10:49:37;6.43;;;2.40;;
79585;SDS011;69054;50.866;4.636;2023-04-25T10:52:25;3.97;;;2.08;;
79585;SDS011;69054;50.866;4.636;2023-04-25T10:54:56;4.60;;;2.38;;
79585;SDS011;69054;50.866;4.636;2023-04-25T10:57:28;4.55;;;2.05;;
79585;SDS011;69054;50.866;4.636;2023-04-25T10:59:57;5.10;;;2.28;;
79585;SDS011;69054;50.866;4.636;2023-04-25T11:02:40;7.40;;;2.50;;
79585;SDS011;69054;50.866;4.636;2023-04-25T11:05:07;6.45;;;2.40;;
79585;SDS011;69054;50.866;4.636;2023-04-25T11:10:08;4.75;;;2.22;;
79585;SDS011;69054;50.866;4.636;2023-04-25T11:12:33;6.05;;;2.53;;
79585;SDS011;69054;50.866;4.636;2023-04-25T11:15:03;4.03;;;2.60;;
79585;SDS011;69054;50.866;4.636;2023-04-25T11:17:30;5.30;;;2.50;;
79585;SDS011;69054;50.866;4.636;2023-04-25T11:19:55;6.70;;;2.70;;
79585;SDS011;69054;50.866;4.636;2023-04-25T11:22:22;4.97;;;2.70;;
79585;SDS011;69054;50.866;4.636;2023-04-25T11:24:47;8.60;;;3.22;;
79585;SDS011;69054;50.866;4.636;2023-04-25T11:27:13;4.45;;;3.05;;
79585;SDS011;69054;50.866;4.636;2023-04-25T11:29:38;7.60;;;3.40;;
79585;SDS011;69054;50.866;4.636;2023-04-25T11:32:04;6.57;;;3.38;;
79585;SDS011;69054;50.866;4.636;2023-04-25T11:34:30;4.35;;;3.47;;
79585;SDS011;69054;50.866;4.636;2023-04-25T11:36:57;7.22;;;3.30;;
79585;SDS011;69054;50.866;4.636;2023-04-25T11:39:26;8.60;;;3.78;;
79585;SDS011;69054;50.866;4.636;2023-04-25T11:41:52;6.07;;;3.40;;
79585;SDS011;69054;50.866;4.636;2023-04-25T11:44:19;5.80;;;3.15;;
79585;SDS011;69054;50.866;4.636;2023-04-25T11:46:45;5.28;;;3.50;;
79585;SDS011;69054;50.866;4.636;2023-04-25T11:49:11;8.90;;;3.60;;
79585;SDS011;69054;50.866;4.636;2023-04-25T11:51:40;10.77;;;3.42;;
79585;SDS011;69054;50.866;4.636;2023-04-25T11:54:06;6.20;;;3.47;;
79585;SDS011;69054;50.866;4.636;2023-04-25T11:56:32;6.35;;;3.40;;
79585;SDS011;69054;50.866;4.636;2023-04-25T12:01:35;6.53;;;3.63;;
79585;SDS011;69054;50.866;4.636;2023-04-25T12:04:12;6.35;;;3.53;;
79585;SDS011;69054;50.866;4.636;2023-04-25T12:06:38;4.70;;;2.70;;
79585;SDS011;69054;50.866;4.636;2023-04-25T12:09:09;6.20;;;3.83;;
79585;SDS011;69054;50.866;4.636;2023-04-25T12:11:43;5.40;;;3.80;;
79585;SDS011;69054;50.866;4.636;2023-04-25T12:14:20;4.60;;;3.33;;
79585;SDS011;69054;50.866;4.636;2023-04-25T12:16:50;3.40;;;2.40;;
79585;SDS011;69054;50.866;4.636;2023-04-25T12:19:17;6.80;;;3.05;;
79585;SDS011;69054;50.866;4.636;2023-04-25T12:21:43;7.68;;;2.95;;
79585;SDS011;69054;50.866;4.636;2023-04-25T12:24:27;6.10;;;2.50;;
79585;SDS011;69054;50.866;4.636;2023-04-25T12:26:54;5.22;;;2.30;;
79585;SDS011;69054;50.866;4.636;2023-04-25T12:29:24;6.03;;;2.97;;
79585;SDS011;69054;50.866;4.636;2023-04-25T12:31:51;5.50;;;2.70;;
79585;SDS011;69054;50.866;4.636;2023-04-25T12:34:18;4.50;;;2.25;;
79585;SDS011;69054;50.866;4.636;2023-04-25T12:36:44;3.10;;;1.50;;
79585;SDS011;69054;50.866;4.636;2023-04-25T12:39:31;4.63;;;1.83;;
79585;SDS011;69054;50.866;4.636;2023-04-25T12:41:56;3.90;;;1.98;;
79585;SDS011;69054;50.866;4.636;2023-04-25T12:44:24;3.03;;;1.90;;
79585;SDS011;69054;50.866;4.636;2023-04-25T12:46:49;4.03;;;2.38;;
79585;SDS011;69054;50.866;4.636;2023-04-25T12:49:15;3.10;;;1.80;;
79585;SDS011;69054;50.866;4.636;2023-04-25T12:51:40;3.88;;;1.92;;
79585;SDS011;69054;50.866;4.636;2023-04-25T12:54:06;3.25;;;2.20;;
79585;SDS011;69054;50.866;4.636;2023-04-25T12:56:33;4.10;;;2.92;;
79585;SDS011;69054;50.866;4.636;2023-04-25T12:58:59;4.80;;;2.13;;
79585;SDS011;69054;50.866;4.636;2023-04-25T13:01:24;4.68;;;2.42;;
79585;SDS011;69054;50.866;4.636;2023-04-25T13:03:51;3.53;;;1.70;;
79585;SDS011;69054;50.866;4.636;2023-04-25T13:06:18;3.67;;;1.52;;
79585;SDS011;69054;50.866;4.636;2023-04-25T13:08:44;5.35;;;1.80;;
79585;SDS011;69054;50.866;4.636;2023-04-25T13:11:10;5.55;;;2.22;;
79585;SDS011;69054;50.866;4.636;2023-04-25T13:13:36;4.22;;;1.85;;
79585;SDS011;69054;50.866;4.636;2023-04-25T13:16:02;3.05;;;1.90;;
79585;SDS011;69054;50.866;4.636;2023-04-25T13:18:29;3.70;;;2.00;;
79585;SDS011;69054;50.866;4.636;2023-04-25T13:20:55;6.15;;;2.45;;
79585;SDS011;69054;50.866;4.636;2023-04-25T13:23:21;5.50;;;2.70;;
79585;SDS011;69054;50.866;4.636;2023-04-25T13:25:50;4.30;;;2.58;;
79585;SDS011;69054;50.866;4.636;2023-04-25T13:28:16;4.47;;;2.63;;
79585;SDS011;69054;50.866;4.636;2023-04-25T13:30:42;6.10;;;2.75;;
79585;SDS011;69054;50.866;4.636;2023-04-25T13:33:08;5.93;;;2.47;;
79585;SDS011;69054;50.866;4.636;2023-04-25T13:35:34;3.22;;;2.28;;
79585;SDS011;69054;50.866;4.636;2023-04-25T13:38:00;5.18;;;2.25;;
79585;SDS011;69054;50.866;4.636;2023-04-25T13:40:26;4.05;;;2.35;;
79585;SDS011;69054;50.866;4.636;2023-04-25T13:42:52;4.18;;;2.05;;
79585;SDS011;69054;50.866;4.636;2023-04-25T13:45:18;4.32;;;2.22;;
79585;SDS011;69054;50.866;4.636;2023-04-25T13:47:43;5.05;;;2.10;;
79585;SDS011;69054;50.866;4.636;2023-04-25T13:50:09;4.20;;;2.05;;
79585;SDS011;69054;50.866;4.636;2023-04-25T13:52:35;6.40;;;2.00;;
79585;SDS011;69054;50.866;4.636;2023-04-25T13:55:00;4.63;;;2.00;;
79585;SDS011;69054;50.866;4.636;2023-04-25T13:57:28;5.78;;;2.20;;
79585;SDS011;69054;50.866;4.636;2023-04-25T13:59:53;3.83;;;2.05;;
79585;SDS011;69054;50.866;4.636;2023-04-25T14:02:19;3.85;;;1.85;;
79585;SDS011;69054;50.866;4.636;2023-04-25T14:04:44;4.57;;;1.92;;
79585;SDS011;69054;50.866;4.636;2023-04-25T14:07:09;3.63;;;2.20;;
79585;SDS011;69054;50.866;4.636;2023-04-25T14:09:36;4.95;;;2.10;;
79585;SDS011;69054;50.866;4.636;2023-04-25T14:12:02;5.60;;;2.45;;
79585;SDS011;69054;50.866;4.636;2023-04-25T14:14:27;2.80;;;2.10;;
79585;SDS011;69054;50.866;4.636;2023-04-25T14:16:53;4.13;;;2.30;;
79585;SDS011;69054;50.866;4.636;2023-04-25T14:19:22;4.97;;;2.17;;
79585;SDS011;69054;50.866;4.636;2023-04-25T14:21:48;3.55;;;2.67;;
79585;SDS011;69054;50.866;4.636;2023-04-25T14:24:14;7.90;;;3.17;;
79585;SDS011;69054;50.866;4.636;2023-04-25T14:26:39;3.15;;;2.05;;
79585;SDS011;69054;50.866;4.636;2023-04-25T14:29:06;3.78;;;2.30;;
79585;SDS011;69054;50.866;4.636;2023-04-25T14:31:32;4.30;;;2.15;;
79585;SDS011;69054;50.866;4.636;2023-04-25T14:33:58;5.45;;;2.45;;
79585;SDS011;69054;50.866;4.636;2023-04-25T14:36:24;5.60;;;2.25;;
79585;SDS011;69054;50.866;4.636;2023-04-25T14:38:51;3.92;;;2.30;;
79585;SDS011;69054;50.866;4.636;2023-04-25T14:41:17;5.65;;;2.20;;
79585;SDS011;69054;50.866;4.636;2023-04-25T14:43:42;6.80;;;2.15;;
79585;SDS011;69054;50.866;4.636;2023-04-25T14:46:08;4.53;;;2.03;;
79585;SDS011;69054;50.866;4.636;2023-04-25T14:48:34;5.07;;;2.13;;